Time;durP1;ratioP1;P1;durP2;ratioP2;P2;SDS_P1;SDS_P2;PMS_P1;PMS_P2;Temp;Humidity;BMP_temperature;BMP_pressure;BME280_temperature;BME280_humidity;BME280_pressure;Samples;Min_cycle;Max_cycle;Signal;HPM_P1;HPM_P2
2023/08/23 05:53:09;;;;;;;12.40;3.90;;;;;;;20.33;75.12;100232.65;109982;1249;22532;-42
2023/08/23 05:55:37;;;;;;;13.10;4.50;;;;;;;20.53;74.36;100230.60;111709;1249;23216;-43
2023/08/23 05:58:04;;;;;;;13.40;4.10;;;;;;;20.70;73.66;100229.71;110657;1249;23032;-51
2023/08/23 06:00:31;;;;;;;10.00;4.30;;;;;;;20.86;72.93;100231.34;111363;1249;22516;-42
2023/08/23 06:02:59;;;;;;;4.20;3.20;;;;;;;21.02;72.31;100230.60;110830;1249;25430;-50
2023/08/23 06:05:26;;;;;;;7.40;3.40;;;;;;;21.24;71.26;100232.67;111369;1248;23131;-49
2023/08/23 06:07:53;;;;;;;8.20;3.20;;;;;;;21.43;70.54;100231.98;113041;1249;22415;-47
2023/08/23 06:10:20;;;;;;;5.20;2.40;;;;;;;21.61;68.98;100229.24;111640;1249;24728;-45
2023/08/23 06:12:47;;;;;;;6.00;2.10;;;;;;;21.75;66.91;100234.56;112410;1249;25307;-48
2023/08/23 06:15:15;;;;;;;6.90;2.30;;;;;;;21.89;65.22;100234.83;112009;1249;22613;-49
2023/08/23 06:17:42;;;;;;;1.80;1.50;;;;;;;22.02;63.40;100232.42;111559;1249;22507;-49
2023/08/23 06:20:09;;;;;;;4.20;1.90;;;;;;;22.14;62.09;100230.61;111827;1249;22889;-44
2023/08/23 06:22:36;;;;;;;3.50;2.00;;;;;;;22.25;61.32;100235.95;111581;1249;22428;-44
2023/08/23 06:25:05;;;;;;;5.40;2.00;;;;;;;22.35;59.98;100241.14;113054;1249;22384;-43
2023/08/23 06:27:32;;;;;;;2.30;1.70;;;;;;;22.45;59.79;100236.55;110951;1249;22495;-44
2023/08/23 06:29:59;;;;;;;2.20;1.70;;;;;;;22.58;59.16;100232.70;112636;1248;22420;-42
2023/08/23 06:32:26;;;;;;;3.00;1.60;;;;;;;22.70;58.46;100236.50;111094;1249;22526;-42
2023/08/23 06:34:53;;;;;;;3.80;1.50;;;;;;;22.79;57.20;100239.63;111849;1248;22501;-48
2023/08/23 06:37:23;;;;;;;3.50;1.60;;;;;;;22.80;55.78;100237.24;110731;1249;26471;-49
2023/08/23 06:39:50;;;;;;;2.80;1.40;;;;;;;22.81;56.03;100240.02;111844;1249;23290;-42
2023/08/23 06:42:17;;;;;;;3.10;1.40;;;;;;;22.86;56.03;100244.63;111652;1249;25429;-49
2023/08/23 06:44:44;;;;;;;2.50;1.70;;;;;;;22.91;55.75;100248.64;111369;1240;22491;-45
2023/08/23 06:47:11;;;;;;;1.80;1.60;;;;;;;23.00;55.43;100250.48;111763;1249;22411;-48
2023/08/23 06:49:38;;;;;;;2.80;1.20;;;;;;;23.09;54.37;100249.45;112416;1249;22484;-43
2023/08/23 06:52:05;;;;;;;2.60;1.80;;;;;;;23.12;53.63;100247.20;112542;1248;23112;-50
2023/08/23 06:54:32;;;;;;;2.10;1.30;;;;;;;23.08;52.88;100249.35;113016;1249;22389;-50
2023/08/23 06:56:59;;;;;;;4.10;1.20;;;;;;;23.06;52.83;100250.16;111798;1249;24147;-44
2023/08/23 06:59:26;;;;;;;3.10;1.90;;;;;;;23.09;52.84;100249.48;112742;1249;22500;-49
2023/08/23 07:01:53;;;;;;;4.20;2.10;;;;;;;23.13;52.97;100247.86;113001;1249;22373;-49
2023/08/23 07:04:20;;;;;;;4.20;1.50;;;;;;;23.17;53.30;100248.01;112994;1249;22378;-44
2023/08/23 07:06:47;;;;;;;2.70;1.60;;;;;;;23.24;53.05;100251.52;112787;1249;23111;-45
2023/08/23 07:09:14;;;;;;;3.70;1.60;;;;;;;23.34;52.35;100251.16;112217;1249;22482;-43
2023/08/23 07:11:41;;;;;;;5.40;1.50;;;;;;;23.44;52.26;100244.96;111457;1249;22492;-44
2023/08/23 07:14:09;;;;;;;2.10;1.30;;;;;;;23.53;51.98;100244.13;110996;1248;22616;-48
2023/08/23 07:16:36;;;;;;;4.30;1.50;;;;;;;23.61;51.73;100247.39;111759;1249;22966;-43
2023/08/23 07:19:03;;;;;;;5.70;1.70;;;;;;;23.69;51.14;100242.17;112983;1249;22405;-48
2023/08/23 07:21:30;;;;;;;2.10;1.20;;;;;;;23.74;50.84;100239.08;112999;1249;22376;-49
2023/08/23 07:23:57;;;;;;;4.70;1.90;;;;;;;23.79;51.14;100239.65;113016;1249;22389;-49
2023/08/23 07:26:24;;;;;;;2.80;1.30;;;;;;;23.87;50.73;100243.49;111413;1249;24155;-43
2023/08/23 07:28:51;;;;;;;3.30;1.60;;;;;;;23.88;50.20;100240.76;112864;1249;23031;-49
2023/08/23 07:31:18;;;;;;;4.10;1.30;;;;;;;23.87;49.86;100235.30;110425;1248;22513;-49
2023/08/23 07:33:46;;;;;;;4.50;2.20;;;;;;;23.91;50.24;100232.58;111446;1249;22545;-46
2023/08/23 07:36:13;;;;;;;5.20;1.70;;;;;;;24.02;50.59;100229.30;111326;1248;22500;-45
2023/08/23 07:38:40;;;;;;;3.20;1.20;;;;;;;24.11;50.29;100223.60;112395;1249;22450;-45
2023/08/23 07:41:07;;;;;;;2.90;1.60;;;;;;;24.17;49.22;100223.98;110488;1249;123916;-45
2023/08/23 07:43:34;;;;;;;1.70;1.10;;;;;;;24.17;48.84;100223.08;113042;1248;22417;-44
2023/08/23 07:46:03;;;;;;;5.00;1.70;;;;;;;24.18;48.84;100224.13;113065;1249;22386;-48
2023/08/23 07:48:30;;;;;;;4.50;1.50;;;;;;;24.17;49.16;100216.32;110890;1248;22568;-42
2023/08/23 07:50:57;;;;;;;8.50;1.90;;;;;;;24.21;49.23;100211.11;110710;1249;25426;-44
2023/08/23 07:53:24;;;;;;;3.10;1.70;;;;;;;24.26;49.39;100209.05;110264;1249;26479;-49
2023/08/23 07:55:51;;;;;;;4.50;1.90;;;;;;;24.37;49.09;100211.26;111914;1234;24182;-45
2023/08/23 07:58:18;;;;;;;6.80;1.90;;;;;;;24.42;48.26;100209.02;112988;1249;22381;-48
2023/08/23 08:00:45;;;;;;;2.70;1.60;;;;;;;24.39;48.25;100200.08;112151;1249;22333;-43
2023/08/23 08:03:12;;;;;;;2.90;1.70;;;;;;;24.44;48.61;100190.03;113017;1249;22431;-48
2023/08/23 08:05:39;;;;;;;3.70;1.80;;;;;;;24.50;48.12;100195.00;113029;1248;22376;-44
2023/08/23 08:08:07;;;;;;;2.90;1.60;;;;;;;24.56;48.47;100196.42;112619;1248;23174;-44
2023/08/23 08:10:36;;;;;;;5.00;2.00;;;;;;;24.65;47.81;100203.20;112996;1249;22564;-49
2023/08/23 08:13:04;;;;;;;6.30;1.30;;;;;;;24.63;47.35;100199.92;113024;1249;22351;-43
2023/08/23 08:15:31;;;;;;;7.20;1.80;;;;;;;24.66;47.87;100201.86;112747;1249;22421;-43
2023/08/23 08:17:58;;;;;;;4.50;1.60;;;;;;;24.78;48.31;100199.39;113038;1248;23535;-45
2023/08/23 08:20:26;;;;;;;2.60;1.40;;;;;;;24.95;47.65;100196.74;112967;1249;22626;-44
2023/08/23 08:22:53;;;;;;;3.20;1.30;;;;;;;25.10;47.39;100200.11;113009;1249;22913;-44
2023/08/23 08:25:20;;;;;;;3.40;1.60;;;;;;;25.18;45.05;100198.17;113008;1248;23116;-48
2023/08/23 08:27:47;;;;;;;4.00;1.50;;;;;;;25.14;44.98;100195.09;113020;1249;22727;-44
2023/08/23 08:30:16;;;;;;;3.80;1.30;;;;;;;25.07;45.22;100201.41;111724;1249;24201;-43
2023/08/23 08:32:43;;;;;;;2.00;1.40;;;;;;;24.94;45.75;100202.30;113012;1249;22165;-49
2023/08/23 08:35:10;;;;;;;2.00;1.20;;;;;;;24.82;45.54;100202.19;113004;1249;22919;-48
2023/08/23 08:37:37;;;;;;;7.80;1.50;;;;;;;24.73;46.03;100203.97;111629;1249;22619;-45
2023/08/23 08:40:05;;;;;;;2.10;1.10;;;;;;;24.76;45.43;100195.59;110841;1249;22660;-43
2023/08/23 08:42:32;;;;;;;3.80;1.50;;;;;;;24.81;44.26;100194.20;111393;1249;22503;-44
2023/08/23 08:44:59;;;;;;;5.80;1.60;;;;;;;24.88;44.27;100199.68;112317;1249;22400;-49
2023/08/23 08:47:26;;;;;;;7.40;1.30;;;;;;;24.99;44.19;100191.86;113019;1249;22431;-48
2023/08/23 08:49:54;;;;;;;2.00;0.90;;;;;;;25.14;43.62;100198.65;113012;1249;22543;-48
2023/08/23 08:52:21;;;;;;;7.30;1.60;;;;;;;25.24;42.21;100203.23;112850;1249;22266;-44
2023/08/23 08:54:50;;;;;;;5.00;1.40;;;;;;;25.21;42.48;100204.07;112445;1249;22507;-44
2023/08/23 08:57:18;;;;;;;3.40;1.30;;;;;;;25.22;42.59;100204.71;111388;1249;24198;-44
2023/08/23 08:59:45;;;;;;;3.10;1.70;;;;;;;25.31;42.54;100206.35;111953;1249;23083;-47
2023/08/23 09:02:12;;;;;;;3.60;1.60;;;;;;;25.32;42.47;100200.52;112699;1249;22263;-49
2023/08/23 09:04:40;;;;;;;2.40;1.20;;;;;;;25.30;42.69;100195.50;112859;1249;22437;-44
2023/08/23 09:07:07;;;;;;;5.90;1.70;;;;;;;25.33;42.11;100194.44;112827;1249;22551;-43
2023/08/23 09:09:34;;;;;;;8.00;1.40;;;;;;;25.46;42.55;100187.02;112965;1249;23089;-45
2023/08/23 09:12:01;;;;;;;1.60;1.30;;;;;;;25.62;42.38;100181.15;112632;1249;23056;-44
2023/08/23 09:14:29;;;;;;;3.40;1.50;;;;;;;25.70;42.46;100183.27;113027;1249;23245;-49
2023/08/23 09:16:56;;;;;;;5.00;1.40;;;;;;;25.70;42.41;100180.82;112687;1249;23027;-49
2023/08/23 09:19:24;;;;;;;3.50;1.40;;;;;;;25.74;42.47;100172.56;111387;1249;22527;-48
2023/08/23 09:21:51;;;;;;;2.70;1.30;;;;;;;25.87;42.34;100172.58;112011;1249;22406;-44
2023/08/23 09:24:18;;;;;;;3.80;1.50;;;;;;;25.99;40.53;100174.09;113021;1249;22380;-44
2023/08/23 09:26:45;;;;;;;4.30;1.50;;;;;;;25.93;40.15;100182.19;113035;1249;22366;-44
2023/08/23 09:29:12;;;;;;;2.30;1.60;;;;;;;25.83;39.84;100190.20;113035;1249;22397;-44
2023/08/23 09:31:39;;;;;;;3.80;1.30;;;;;;;25.77;40.68;100196.10;112684;1249;22818;-43
2023/08/23 09:34:14;;;;;;;2.80;1.50;;;;;;;25.78;41.42;100196.77;112984;1249;22349;-44
2023/08/23 09:36:41;;;;;;;6.20;1.70;;;;;;;25.84;41.10;100193.89;112929;1249;22359;-50
2023/08/23 09:39:09;;;;;;;2.70;1.50;;;;;;;25.94;41.10;100190.90;112678;1249;22512;-45
2023/08/23 09:41:40;;;;;;;4.50;1.50;;;;;;;26.10;40.86;100193.25;111989;1249;22464;-50
2023/08/23 09:44:26;;;;;;;2.10;1.10;;;;;;;26.27;39.54;100191.42;113018;1249;22414;-49
2023/08/23 09:46:53;;;;;;;3.80;1.30;;;;;;;26.22;40.21;100187.77;112981;1249;23172;-43
2023/08/23 09:49:20;;;;;;;4.60;1.40;;;;;;;26.18;40.78;100182.14;112644;1249;22470;-43
2023/08/23 09:51:47;;;;;;;2.60;1.20;;;;;;;26.19;41.30;100170.66;112940;1249;22378;-43
2023/08/23 09:54:17;;;;;;;8.90;1.80;;;;;;;26.22;41.53;100168.64;112820;1249;22362;-44
2023/08/23 09:56:59;;;;;;;2.40;1.30;;;;;;;26.19;41.36;100173.67;112882;1249;22222;-44
2023/08/23 09:59:26;;;;;;;8.00;1.70;;;;;;;26.21;41.27;100170.69;112964;1249;22449;-45
2023/08/23 10:01:53;;;;;;;3.10;1.90;;;;;;;26.28;40.61;100171.63;112637;1249;23206;-47
2023/08/23 10:04:20;;;;;;;3.50;1.30;;;;;;;26.32;40.64;100169.79;112852;1249;23509;-44
2023/08/23 10:06:48;;;;;;;6.40;1.60;;;;;;;26.32;40.58;100167.65;112971;1249;22357;-44
2023/08/23 10:09:16;;;;;;;4.50;1.50;;;;;;;26.28;41.35;100171.29;112981;1249;23640;-43
2023/08/23 10:11:43;;;;;;;5.60;1.50;;;;;;;26.28;41.15;100167.92;113003;1242;22405;-49
2023/08/23 10:14:22;;;;;;;5.20;1.60;;;;;;;26.27;41.06;100165.63;112707;1249;22954;-44
2023/08/23 10:16:49;;;;;;;1.80;1.10;;;;;;;26.23;40.99;100170.34;112830;1249;22495;-49
2023/08/23 10:19:16;;;;;;;2.80;1.30;;;;;;;26.15;41.20;100167.70;112829;1249;22404;-49
2023/08/23 10:21:43;;;;;;;4.80;1.60;;;;;;;26.12;40.95;100173.40;112824;1248;22935;-50
2023/08/23 10:24:10;;;;;;;7.80;1.30;;;;;;;26.16;40.93;100171.23;112677;1249;22885;-44
2023/08/23 10:26:48;;;;;;;2.80;1.50;;;;;;;26.28;40.52;100167.75;111730;1249;22426;-43
2023/08/23 10:29:30;;;;;;;3.70;1.70;;;;;;;26.42;40.77;100161.41;111633;1249;22414;-43
2023/08/23 10:31:57;;;;;;;;;;;;;;;26.59;40.22;100167.06;112858;1249;22350;-45
2023/08/23 10:34:25;;;;;;;8.80;1.80;;;;;;;26.71;40.02;100163.77;112964;1249;22467;-44
2023/08/23 10:36:55;;;;;;;2.10;1.10;;;;;;;26.70;39.69;100161.14;113042;1248;22358;-44
2023/08/23 10:39:25;;;;;;;2.50;1.10;;;;;;;26.81;39.21;100165.53;111361;1249;22602;-43
2023/08/23 10:41:55;;;;;;;2.90;1.30;;;;;;;27.02;38.17;100159.98;112677;1249;23237;-44
2023/08/23 10:44:22;;;;;;;6.60;1.80;;;;;;;27.33;38.41;100155.14;112544;1249;22420;-44
2023/08/23 10:46:50;;;;;;;3.00;1.50;;;;;;;27.78;37.73;100150.59;113050;1249;22230;-44
2023/08/23 10:49:20;;;;;;;5.40;2.00;;;;;;;28.23;36.94;100152.44;112982;1249;23159;-45
2023/08/23 10:51:47;;;;;;;6.40;1.70;;;;;;;28.69;36.17;100150.01;112973;1249;22367;-48
2023/08/23 10:54:14;;;;;;;3.70;1.40;;;;;;;29.18;35.45;100145.39;112695;1249;23224;-49
2023/08/23 10:56:41;;;;;;;4.40;2.00;;;;;;;29.78;34.31;100137.87;111213;1249;22496;-49
2023/08/23 10:59:09;;;;;;;3.50;1.20;;;;;;;30.32;32.73;100134.42;111189;1249;22496;-43
2023/08/23 11:01:39;;;;;;;1.70;1.20;;;;;;;30.66;31.67;100134.95;111754;1249;22626;-44
2023/08/23 11:04:07;;;;;;;2.80;1.50;;;;;;;30.83;30.88;100133.30;112589;1248;25542;-44
2023/08/23 11:06:34;;;;;;;4.10;1.80;;;;;;;30.89;30.90;100126.51;112846;1249;22378;-44
2023/08/23 11:09:01;;;;;;;6.10;1.40;;;;;;;31.00;30.70;100121.59;112836;1249;22372;-48
2023/08/23 11:11:28;;;;;;;2.40;1.60;;;;;;;31.09;30.95;100118.30;113024;1249;22359;-50
2023/08/23 11:13:56;;;;;;;5.10;1.40;;;;;;;31.00;30.88;100121.56;112813;1249;22442;-44
2023/08/23 11:16:23;;;;;;;2.50;1.50;;;;;;;30.63;31.20;100122.64;112689;1249;22570;-43
2023/08/23 11:18:50;;;;;;;4.70;1.80;;;;;;;30.26;31.57;100121.10;112958;1249;22359;-47
2023/08/23 11:21:17;;;;;;;3.90;1.70;;;;;;;30.07;31.92;100119.49;113008;1249;22384;-49
2023/08/23 11:23:44;;;;;;;4.00;1.60;;;;;;;29.89;31.98;100112.84;112967;1249;22394;-44
2023/08/23 11:26:11;;;;;;;2.70;1.40;;;;;;;29.65;32.80;100110.88;113007;1249;22377;-45
2023/08/23 11:28:38;;;;;;;3.40;1.70;;;;;;;29.42;33.66;100105.20;113005;1249;22389;-43
